createdAt,value
2019-03-17T00:01:57.928Z,1.30
2019-03-17T00:04:31.259Z,1.43
2019-03-17T00:06:53.257Z,1.20
2019-03-17T00:09:19.780Z,1.17
2019-03-17T00:11:46.360Z,1.50
2019-03-17T00:14:12.816Z,1.83
2019-03-17T00:16:39.349Z,2.07
2019-03-17T00:19:05.960Z,1.60
2019-03-17T00:21:32.533Z,1.30
2019-03-17T00:23:59.133Z,1.30
2019-03-17T00:26:25.831Z,1.63
2019-03-17T00:28:52.366Z,1.50
2019-03-17T00:31:23.677Z,1.83
2019-03-17T00:33:47.361Z,1.60
2019-03-17T00:36:13.956Z,1.60
2019-03-17T00:38:40.481Z,1.90
2019-03-17T00:41:07.064Z,1.50
2019-03-17T00:43:34.835Z,1.13
2019-03-17T00:46:01.424Z,1.17
2019-03-17T00:48:27.940Z,1.20
2019-03-17T00:50:54.503Z,1.50
2019-03-17T00:53:21.089Z,1.70
2019-03-17T00:55:47.713Z,1.80
2019-03-17T00:58:14.288Z,2.00
2019-03-17T01:00:40.876Z,1.47
2019-03-17T01:03:07.452Z,1.50
2019-03-17T01:05:33.966Z,1.77
2019-03-17T01:08:00.474Z,1.70
2019-03-17T01:10:27.064Z,2.20
2019-03-17T01:12:53.543Z,1.90
2019-03-17T01:15:20.037Z,1.53
2019-03-17T01:17:46.522Z,1.70
2019-03-17T01:20:13.100Z,2.00
2019-03-17T01:22:39.718Z,1.60
2019-03-17T01:25:07.209Z,1.50
2019-03-17T01:27:33.828Z,1.97
2019-03-17T01:30:00.435Z,1.57
2019-03-17T01:32:27.045Z,1.47
2019-03-17T01:34:53.737Z,1.83
2019-03-17T01:37:20.364Z,1.77
2019-03-17T01:39:46.947Z,1.33
2019-03-17T01:42:13.546Z,1.80
2019-03-17T01:44:40.134Z,1.67
2019-03-17T01:47:06.741Z,1.90
2019-03-17T01:49:33.316Z,1.70
2019-03-17T01:51:59.924Z,1.87
2019-03-17T01:54:26.522Z,1.50
2019-03-17T01:56:53.089Z,1.57
2019-03-17T01:59:19.633Z,1.30
2019-03-17T02:01:46.301Z,1.40
2019-03-17T02:04:12.789Z,1.60
2019-03-17T02:06:39.316Z,1.53
2019-03-17T02:09:06.105Z,1.60
2019-03-17T02:11:32.738Z,1.40
2019-03-17T02:14:04.472Z,1.47
2019-03-17T02:16:30.973Z,1.63
2019-03-17T02:18:57.549Z,1.50
2019-03-17T02:21:24.150Z,1.50
2019-03-17T02:23:50.720Z,1.57
2019-03-17T02:26:17.193Z,1.33
2019-03-17T02:28:43.731Z,1.53
2019-03-17T02:31:10.327Z,1.50
2019-03-17T02:33:36.913Z,1.57
2019-03-17T02:36:03.532Z,1.30
2019-03-17T02:38:30.100Z,1.13
2019-03-17T02:40:56.729Z,1.30
2019-03-17T02:43:23.304Z,1.50
2019-03-17T02:45:49.882Z,1.33
2019-03-17T02:48:16.559Z,1.57
2019-03-17T02:50:43.093Z,1.53
2019-03-17T02:53:09.674Z,1.30
2019-03-17T02:55:36.261Z,1.63
2019-03-17T02:58:02.892Z,1.47
2019-03-17T03:00:29.482Z,1.30
2019-03-17T03:02:56.075Z,1.80
2019-03-17T03:05:22.657Z,1.70
2019-03-17T03:07:49.154Z,1.70
2019-03-17T03:10:15.666Z,1.60
2019-03-17T03:12:42.334Z,1.30
2019-03-17T03:15:08.858Z,1.47
2019-03-17T03:17:35.413Z,1.63
2019-03-17T03:20:03.093Z,1.10
2019-03-17T03:22:29.725Z,1.43
2019-03-17T03:24:56.321Z,1.03
2019-03-17T03:27:22.931Z,1.20
2019-03-17T03:29:49.614Z,1.30
2019-03-17T03:32:16.139Z,1.50
2019-03-17T03:34:42.710Z,1.30
2019-03-17T03:37:09.292Z,1.47
2019-03-17T03:39:35.822Z,1.20
2019-03-17T03:42:02.383Z,1.43
2019-03-17T03:44:28.857Z,3.67
2019-03-17T03:46:55.431Z,1.83
2019-03-17T03:49:21.935Z,1.50
2019-03-17T03:51:48.511Z,1.20
2019-03-17T03:54:15.033Z,1.40
2019-03-17T03:56:41.661Z,1.20
2019-03-17T03:59:08.285Z,1.20
2019-03-17T04:01:34.867Z,1.23
2019-03-17T04:04:01.481Z,1.30
2019-03-17T04:06:28.072Z,1.30
2019-03-17T04:08:54.642Z,1.40
2019-03-17T04:11:21.276Z,1.53
2019-03-17T04:13:47.875Z,1.20
2019-03-17T04:16:14.576Z,1.27
2019-03-17T04:18:41.200Z,1.47
2019-03-17T04:21:07.812Z,1.33
2019-03-17T04:23:34.399Z,1.50
2019-03-17T04:26:01.078Z,1.70
2019-03-17T04:28:27.583Z,1.40
2019-03-17T04:30:54.176Z,1.30
2019-03-17T04:33:20.769Z,1.23
2019-03-17T04:35:47.373Z,1.70
2019-03-17T04:38:13.953Z,1.40
2019-03-17T04:40:40.564Z,1.13
2019-03-17T04:43:07.033Z,1.50
2019-03-17T04:45:33.618Z,1.60
2019-03-17T04:48:00.203Z,1.47
2019-03-17T04:50:26.829Z,1.70
2019-03-17T04:52:53.417Z,1.73
2019-03-17T04:55:19.988Z,1.50
2019-03-17T04:57:46.609Z,1.63
2019-03-17T05:00:13.273Z,1.70
2019-03-17T05:02:39.759Z,1.60
2019-03-17T05:05:06.781Z,1.57
2019-03-17T05:07:33.453Z,1.43
2019-03-17T05:09:59.996Z,1.60
2019-03-17T05:12:26.546Z,1.47
2019-03-17T05:14:53.132Z,1.50
2019-03-17T05:17:19.731Z,1.80
2019-03-17T05:19:46.203Z,1.40
2019-03-17T05:22:12.693Z,1.83
2019-03-17T05:24:39.289Z,1.73
2019-03-17T05:27:05.852Z,1.50
2019-03-17T05:29:32.342Z,1.80
2019-03-17T05:31:58.948Z,1.73
2019-03-17T05:34:30.517Z,1.73
2019-03-17T05:37:06.205Z,1.60
2019-03-17T05:39:25.400Z,1.70
2019-03-17T05:41:51.894Z,1.73
2019-03-17T05:44:18.410Z,1.70
2019-03-17T05:46:44.978Z,1.73
2019-03-17T05:49:11.480Z,1.80
2019-03-17T05:51:38.073Z,1.87
2019-03-17T05:54:04.552Z,1.57
2019-03-17T05:56:31.029Z,1.60
2019-03-17T05:58:57.636Z,1.97
2019-03-17T06:01:24.236Z,1.80
2019-03-17T06:03:50.833Z,1.90
2019-03-17T06:06:17.486Z,1.60
2019-03-17T06:08:44.081Z,1.70
2019-03-17T06:11:10.664Z,1.50
2019-03-17T06:13:37.157Z,2.00
2019-03-17T06:16:03.734Z,1.80
2019-03-17T06:18:30.356Z,2.27
2019-03-17T06:20:56.925Z,2.50
2019-03-17T06:23:23.518Z,2.73
2019-03-17T06:25:50.121Z,2.50
2019-03-17T06:28:16.746Z,2.53
2019-03-17T06:30:43.303Z,2.30
2019-03-17T06:33:09.877Z,2.50
2019-03-17T06:35:36.384Z,2.57
2019-03-17T06:38:02.987Z,2.90
2019-03-17T06:40:29.481Z,2.30
2019-03-17T06:42:56.084Z,2.70
2019-03-17T06:45:22.672Z,3.23
2019-03-17T06:47:49.364Z,3.10
2019-03-17T06:50:15.842Z,3.70
2019-03-17T06:52:42.432Z,2.60
2019-03-17T06:55:10.953Z,2.30
2019-03-17T06:57:37.549Z,2.20
2019-03-17T07:00:05.553Z,2.40
2019-03-17T07:02:32.149Z,3.10
2019-03-17T07:04:58.786Z,2.73
2019-03-17T07:07:25.384Z,2.70
2019-03-17T07:09:51.887Z,2.70
2019-03-17T07:12:18.479Z,2.50
2019-03-17T07:14:45.083Z,3.07
2019-03-17T07:17:11.672Z,2.90
2019-03-17T07:19:38.252Z,3.00
2019-03-17T07:22:05.205Z,2.90
2019-03-17T07:24:31.788Z,3.00
2019-03-17T07:26:58.340Z,2.53
2019-03-17T07:29:24.841Z,2.43
2019-03-17T07:31:51.445Z,2.67
2019-03-17T07:34:18.029Z,3.03
2019-03-17T07:36:44.627Z,2.70
2019-03-17T07:39:12.380Z,2.50
2019-03-17T07:41:39.115Z,2.20
2019-03-17T07:44:05.705Z,2.30
2019-03-17T07:46:32.247Z,2.23
2019-03-17T07:48:58.816Z,2.20
2019-03-17T07:51:25.288Z,2.10
2019-03-17T07:53:51.808Z,2.07
2019-03-17T07:56:18.396Z,2.30
2019-03-17T07:58:44.921Z,2.23
2019-03-17T08:01:11.512Z,1.73
2019-03-17T08:03:38.121Z,1.60
2019-03-17T08:06:04.825Z,1.80
2019-03-17T08:08:31.460Z,1.60
2019-03-17T08:10:57.996Z,1.70
2019-03-17T08:13:24.580Z,1.63
2019-03-17T08:15:51.218Z,1.60
2019-03-17T08:18:17.776Z,2.03
2019-03-17T08:20:44.268Z,1.40
2019-03-17T08:23:10.786Z,1.67
2019-03-17T08:25:37.369Z,2.00
2019-03-17T08:28:03.980Z,1.80
2019-03-17T08:30:30.599Z,1.70
2019-03-17T08:32:57.199Z,1.60
2019-03-17T08:35:23.792Z,1.60
2019-03-17T08:37:50.392Z,2.03
2019-03-17T08:40:17.188Z,1.87
2019-03-17T08:42:43.870Z,2.53
2019-03-17T08:45:11.209Z,1.50
2019-03-17T08:47:37.836Z,1.40
2019-03-17T08:50:05.933Z,1.40
2019-03-17T08:52:34.312Z,1.40
2019-03-17T08:55:16.127Z,1.90
2019-03-17T08:57:42.744Z,1.73
2019-03-17T09:00:16.170Z,1.60
2019-03-17T09:02:42.661Z,1.37
2019-03-17T09:05:09.400Z,1.50
2019-03-17T09:07:36.063Z,1.50
2019-03-17T09:10:04.169Z,1.40
2019-03-17T09:12:30.749Z,1.70
2019-03-17T09:14:57.356Z,1.20
2019-03-17T09:17:23.948Z,1.40
2019-03-17T09:19:50.533Z,1.57
2019-03-17T09:22:17.139Z,1.63
2019-03-17T09:24:43.658Z,1.40
2019-03-17T09:27:10.236Z,1.70
2019-03-17T09:29:36.836Z,1.47
2019-03-17T09:32:03.464Z,1.47
2019-03-17T09:34:30.038Z,1.60
2019-03-17T09:36:56.644Z,1.60
2019-03-17T09:39:23.262Z,1.50
2019-03-17T09:41:49.872Z,1.70
2019-03-17T09:44:16.473Z,1.53
2019-03-17T09:46:43.073Z,1.33
2019-03-17T09:49:09.684Z,1.70
2019-03-17T09:51:36.279Z,1.67
2019-03-17T09:54:02.881Z,1.50
2019-03-17T09:56:29.509Z,1.50
2019-03-17T09:58:56.088Z,1.70
2019-03-17T10:01:22.581Z,1.60
2019-03-17T10:03:49.209Z,1.30
2019-03-17T10:06:15.824Z,1.87
2019-03-17T10:08:42.421Z,1.60
2019-03-17T10:11:10.676Z,1.67
2019-03-17T10:13:37.416Z,1.77
2019-03-17T10:16:04.002Z,1.73
2019-03-17T10:18:30.567Z,1.77
2019-03-17T10:20:57.067Z,1.80
2019-03-17T10:23:23.713Z,1.70
2019-03-17T10:25:50.320Z,1.60
2019-03-17T10:28:16.900Z,1.53
2019-03-17T10:30:43.448Z,1.93
2019-03-17T10:33:10.084Z,1.77
2019-03-17T10:35:36.716Z,1.43
2019-03-17T10:38:03.313Z,1.70
2019-03-17T10:40:29.908Z,1.40
2019-03-17T10:42:56.463Z,1.53
2019-03-17T10:45:22.988Z,1.80
2019-03-17T10:47:49.573Z,1.70
2019-03-17T10:50:16.767Z,1.80
2019-03-17T10:52:43.368Z,1.60
2019-03-17T10:55:10.380Z,1.63
2019-03-17T10:57:36.982Z,1.50
2019-03-17T11:00:05.459Z,1.80
2019-03-17T11:02:31.979Z,1.80
2019-03-17T11:04:58.549Z,1.60
2019-03-17T11:07:25.153Z,1.47
2019-03-17T11:09:51.745Z,2.80
2019-03-17T11:12:18.236Z,1.50
2019-03-17T11:14:45.483Z,1.60
2019-03-17T11:17:11.980Z,1.40
2019-03-17T11:19:38.473Z,1.53
2019-03-17T11:22:05.084Z,1.40
2019-03-17T11:24:31.676Z,1.67
2019-03-17T11:26:58.260Z,2.07
2019-03-17T11:29:24.845Z,1.63
2019-03-17T11:31:51.336Z,1.80
2019-03-17T11:34:17.929Z,1.80
2019-03-17T11:36:44.536Z,2.00
2019-03-17T11:39:11.136Z,1.60
2019-03-17T11:41:37.713Z,1.60
2019-03-17T11:44:04.329Z,1.70
2019-03-17T11:46:30.917Z,1.90
2019-03-17T11:48:57.513Z,1.70
2019-03-17T11:51:24.100Z,2.00
2019-03-17T11:53:50.572Z,1.90
2019-03-17T11:56:17.053Z,1.60
2019-03-17T11:58:43.653Z,1.90
2019-03-17T12:01:10.312Z,1.50
2019-03-17T12:03:37.376Z,1.73
2019-03-17T12:06:03.934Z,1.77
2019-03-17T12:08:30.553Z,1.87
2019-03-17T12:10:57.141Z,1.70
2019-03-17T12:13:23.721Z,1.70
2019-03-17T12:15:50.317Z,1.70
2019-03-17T12:18:16.961Z,1.50
2019-03-17T12:20:43.587Z,2.10
2019-03-17T12:23:10.197Z,2.07
2019-03-17T12:25:36.848Z,1.63
2019-03-17T12:28:03.436Z,1.70
2019-03-17T12:30:30.047Z,1.90
2019-03-17T12:32:56.643Z,1.63
2019-03-17T12:35:23.229Z,1.50
2019-03-17T12:37:49.931Z,1.70
2019-03-17T12:40:16.566Z,1.87
2019-03-17T12:42:43.245Z,1.80
2019-03-17T12:45:34.622Z,1.50
2019-03-17T12:48:01.244Z,1.67
2019-03-17T12:50:27.828Z,1.60
2019-03-17T12:52:54.449Z,1.47
2019-03-17T12:55:21.157Z,1.70
2019-03-17T12:57:47.639Z,4.23
2019-03-17T13:00:15.040Z,1.70
2019-03-17T13:02:41.741Z,1.70
2019-03-17T13:05:09.049Z,1.87
2019-03-17T13:07:36.064Z,1.73
2019-03-17T13:10:15.202Z,2.07
2019-03-17T13:12:32.362Z,1.50
2019-03-17T13:14:58.952Z,1.50
2019-03-17T13:17:25.461Z,1.30
2019-03-17T13:19:52.038Z,1.50
2019-03-17T13:22:18.645Z,1.60
2019-03-17T13:24:45.230Z,1.80
2019-03-17T13:27:11.832Z,1.30
2019-03-17T13:29:38.462Z,1.60
2019-03-17T13:32:05.065Z,1.60
2019-03-17T13:34:31.652Z,1.93
2019-03-17T13:36:58.285Z,1.87
2019-03-17T13:39:24.850Z,2.20
2019-03-17T13:41:51.413Z,2.40
2019-03-17T13:44:17.984Z,1.43
2019-03-17T13:46:44.601Z,1.80
2019-03-17T13:49:11.187Z,1.60
2019-03-17T13:51:37.666Z,1.50
2019-03-17T13:54:04.265Z,1.80
2019-03-17T13:56:30.844Z,1.53
2019-03-17T13:58:57.453Z,1.50
2019-03-17T14:01:24.116Z,1.70
2019-03-17T14:03:50.811Z,1.60
2019-03-17T14:06:17.404Z,1.70
2019-03-17T14:08:43.897Z,1.30
2019-03-17T14:11:10.499Z,1.53
2019-03-17T14:13:36.975Z,1.40
2019-03-17T14:16:03.468Z,1.70
2019-03-17T14:18:30.068Z,1.50
2019-03-17T14:20:56.656Z,1.80
2019-03-17T14:23:23.223Z,1.70
2019-03-17T14:25:49.744Z,1.70
2019-03-17T14:28:17.011Z,1.60
2019-03-17T14:30:43.523Z,1.63
2019-03-17T14:33:10.104Z,2.00
2019-03-17T14:35:36.701Z,1.50
2019-03-17T14:38:03.203Z,1.37
2019-03-17T14:40:29.781Z,1.50
2019-03-17T14:42:56.396Z,1.33
2019-03-17T14:45:22.995Z,1.50
2019-03-17T14:47:49.598Z,1.60
2019-03-17T14:50:17.505Z,1.50
2019-03-17T14:52:44.745Z,1.57
2019-03-17T14:55:11.237Z,1.53
2019-03-17T14:57:37.771Z,1.60
2019-03-17T15:00:09.309Z,1.20
2019-03-17T15:02:35.910Z,1.33
2019-03-17T15:05:03.312Z,1.10
2019-03-17T15:07:29.899Z,1.60
2019-03-17T15:09:56.493Z,1.40
2019-03-17T15:12:23.101Z,1.50
2019-03-17T15:14:49.745Z,1.80
2019-03-17T15:17:16.304Z,1.90
2019-03-17T15:19:43.304Z,1.90
2019-03-17T15:22:09.855Z,1.67
2019-03-17T15:24:36.443Z,1.60
2019-03-17T15:27:03.154Z,2.10
2019-03-17T15:29:29.649Z,1.60
2019-03-17T15:31:56.220Z,1.97
2019-03-17T15:34:22.846Z,1.50
2019-03-17T15:36:49.449Z,1.50
2019-03-17T15:39:15.936Z,1.80
2019-03-17T15:41:42.445Z,1.33
2019-03-17T15:44:09.064Z,1.53
2019-03-17T15:46:35.643Z,1.63
2019-03-17T15:49:02.268Z,1.93
2019-03-17T15:51:28.841Z,1.63
2019-03-17T15:53:55.430Z,1.80
2019-03-17T15:56:22.021Z,1.77
2019-03-17T15:58:48.516Z,1.80
2019-03-17T16:01:15.081Z,1.50
2019-03-17T16:03:41.583Z,2.20
2019-03-17T16:06:08.181Z,1.90
2019-03-17T16:08:34.776Z,1.90
2019-03-17T16:11:01.372Z,1.70
2019-03-17T16:13:27.959Z,1.90
2019-03-17T16:15:54.557Z,1.90
2019-03-17T16:18:21.141Z,1.90
2019-03-17T16:20:47.745Z,1.90
2019-03-17T16:23:14.357Z,1.97
2019-03-17T16:25:40.944Z,2.17
2019-03-17T16:28:07.534Z,1.80
2019-03-17T16:30:34.148Z,2.40
2019-03-17T16:33:00.825Z,3.90
2019-03-17T16:35:27.449Z,1.80
2019-03-17T16:37:54.121Z,2.17
2019-03-17T16:40:25.509Z,1.70
2019-03-17T16:42:53.690Z,1.40
2019-03-17T16:45:20.521Z,1.10
2019-03-17T16:47:47.012Z,1.10
2019-03-17T16:50:14.812Z,0.80
2019-03-17T16:52:41.380Z,0.80
2019-03-17T16:55:11.281Z,0.93
2019-03-17T16:57:36.817Z,0.80
2019-03-17T17:00:05.212Z,0.77
2019-03-17T17:02:31.797Z,0.80
2019-03-17T17:04:58.416Z,0.80
2019-03-17T17:07:25.009Z,0.80
2019-03-17T17:09:51.598Z,0.70
2019-03-17T17:12:18.093Z,0.60
2019-03-17T17:14:44.705Z,0.60
2019-03-17T17:17:11.288Z,0.60
2019-03-17T17:19:37.895Z,0.50
2019-03-17T17:22:04.474Z,0.60
2019-03-17T17:24:31.056Z,0.60
2019-03-17T17:26:57.649Z,0.60
2019-03-17T17:29:24.153Z,0.67
2019-03-17T17:31:50.733Z,0.70
2019-03-17T17:34:17.253Z,0.60
2019-03-17T17:36:43.740Z,0.50
2019-03-17T17:39:10.711Z,0.60
2019-03-17T17:41:37.551Z,0.70
2019-03-17T17:44:04.268Z,0.60
2019-03-17T17:46:30.877Z,0.43
2019-03-17T17:48:57.449Z,0.50
2019-03-17T17:51:24.198Z,0.60
2019-03-17T17:53:50.810Z,0.67
2019-03-17T17:56:17.417Z,0.70
2019-03-17T17:58:44.020Z,0.70
2019-03-17T18:01:10.699Z,0.60
2019-03-17T18:03:37.208Z,0.60
2019-03-17T18:06:03.791Z,0.53
2019-03-17T18:08:30.370Z,0.63
2019-03-17T18:10:56.972Z,0.50
2019-03-17T18:13:23.571Z,0.50
2019-03-17T18:15:50.129Z,0.77
2019-03-17T18:18:16.657Z,0.57
2019-03-17T18:20:43.718Z,0.50
2019-03-17T18:23:17.702Z,0.63
2019-03-17T18:25:39.018Z,0.53
2019-03-17T18:28:05.605Z,0.50
2019-03-17T18:30:32.204Z,0.80
2019-03-17T18:32:58.813Z,2.00
2019-03-17T18:35:25.485Z,1.10
2019-03-17T18:37:52.089Z,1.07
2019-03-17T18:40:19.463Z,0.80
2019-03-17T18:42:46.029Z,0.80
2019-03-17T18:45:13.654Z,0.70
2019-03-17T18:47:40.172Z,0.70
2019-03-17T18:50:19.473Z,0.90
2019-03-17T18:52:36.881Z,0.80
2019-03-17T18:55:03.589Z,0.80
2019-03-17T18:57:30.169Z,0.70
2019-03-17T18:59:56.764Z,0.50
2019-03-17T19:02:23.353Z,0.60
2019-03-17T19:04:49.940Z,0.60
2019-03-17T19:07:16.552Z,0.60
2019-03-17T19:09:43.042Z,0.60
2019-03-17T19:12:10.511Z,0.57
2019-03-17T19:14:37.096Z,0.87
2019-03-17T19:17:03.719Z,0.77
2019-03-17T19:19:30.277Z,0.60
2019-03-17T19:21:56.863Z,0.60
2019-03-17T19:24:23.474Z,0.70
2019-03-17T19:26:50.050Z,0.60
2019-03-17T19:29:16.668Z,0.60
2019-03-17T19:31:43.249Z,0.60
2019-03-17T19:34:09.831Z,0.60
2019-03-17T19:36:37.033Z,0.60
2019-03-17T19:39:04.763Z,0.60
2019-03-17T19:41:31.249Z,0.77
2019-03-17T19:43:58.176Z,0.70
2019-03-17T19:46:24.800Z,0.90
2019-03-17T19:48:51.409Z,0.67
2019-03-17T19:51:19.069Z,1.20
2019-03-17T19:53:45.862Z,1.10
2019-03-17T19:56:12.373Z,0.60
2019-03-17T19:58:40.605Z,0.90
2019-03-17T20:01:07.601Z,0.77
2019-03-17T20:03:34.212Z,0.77
2019-03-17T20:06:02.503Z,0.57
2019-03-17T20:08:29.139Z,0.60
2019-03-17T20:10:55.801Z,0.60
2019-03-17T20:13:22.327Z,1.00
2019-03-17T20:15:49.400Z,0.90
2019-03-17T20:18:15.978Z,0.80
2019-03-17T20:20:42.597Z,0.70
2019-03-17T20:23:09.194Z,0.67
2019-03-17T20:25:35.825Z,0.63
2019-03-17T20:28:02.410Z,0.90
2019-03-17T20:30:29.325Z,1.10
2019-03-17T20:32:55.937Z,1.10
2019-03-17T20:35:22.558Z,0.87
2019-03-17T20:37:49.145Z,0.90
2019-03-17T20:40:16.222Z,0.60
2019-03-17T20:42:42.842Z,0.73
2019-03-17T20:45:11.204Z,0.60
2019-03-17T20:47:37.833Z,0.53
2019-03-17T20:50:05.954Z,0.70
2019-03-17T20:52:32.519Z,0.70
2019-03-17T20:54:59.085Z,0.70
2019-03-17T20:57:26.124Z,0.80
2019-03-17T20:59:52.674Z,0.70
2019-03-17T21:02:19.297Z,1.00
2019-03-17T21:04:45.909Z,0.80
2019-03-17T21:07:12.502Z,0.53
2019-03-17T21:09:39.202Z,0.60
2019-03-17T21:12:05.825Z,0.60
2019-03-17T21:14:32.412Z,0.40
2019-03-17T21:16:59.008Z,0.50
2019-03-17T21:19:25.628Z,0.40
2019-03-17T21:21:52.209Z,0.50
2019-03-17T21:24:18.841Z,0.40
2019-03-17T21:26:45.440Z,0.40
2019-03-17T21:29:12.022Z,0.40
2019-03-17T21:31:38.607Z,0.33
2019-03-17T21:34:05.206Z,0.37
2019-03-17T21:36:31.885Z,0.43
2019-03-17T21:38:58.510Z,0.40
2019-03-17T21:41:25.091Z,0.50
2019-03-17T21:43:59.453Z,0.40
2019-03-17T21:46:20.544Z,0.40
2019-03-17T21:48:47.144Z,0.40
2019-03-17T21:51:13.754Z,0.50
2019-03-17T21:53:40.333Z,0.43
2019-03-17T21:56:06.996Z,1.67
2019-03-17T21:58:33.600Z,0.50
2019-03-17T22:01:00.220Z,0.50
2019-03-17T22:03:26.794Z,0.50
2019-03-17T22:05:53.281Z,1.00
2019-03-17T22:08:20.021Z,0.60
2019-03-17T22:10:46.547Z,0.40
2019-03-17T22:13:13.105Z,0.60
2019-03-17T22:15:39.611Z,0.50
2019-03-17T22:18:06.188Z,0.60
2019-03-17T22:20:32.692Z,0.73
2019-03-17T22:22:59.574Z,0.60
2019-03-17T22:25:26.118Z,0.47
2019-03-17T22:27:52.721Z,0.50
2019-03-17T22:30:19.706Z,0.50
2019-03-17T22:32:46.303Z,0.50
2019-03-17T22:35:12.895Z,0.63
2019-03-17T22:37:39.497Z,0.80
2019-03-17T22:40:09.741Z,0.70
2019-03-17T22:42:36.603Z,0.67
2019-03-17T22:45:04.822Z,1.00
2019-03-17T22:47:31.412Z,0.60
2019-03-17T22:49:58.030Z,0.70
2019-03-17T22:52:24.610Z,0.50
2019-03-17T22:54:51.240Z,0.70
2019-03-17T22:57:17.879Z,0.57
2019-03-17T22:59:44.456Z,0.50
2019-03-17T23:02:11.042Z,0.60
2019-03-17T23:04:37.654Z,0.60
2019-03-17T23:07:04.225Z,0.57
2019-03-17T23:09:30.762Z,0.63
2019-03-17T23:11:57.397Z,0.63
2019-03-17T23:14:35.883Z,0.60
2019-03-17T23:16:52.321Z,0.70
2019-03-17T23:19:18.863Z,0.60
2019-03-17T23:21:45.408Z,0.60
2019-03-17T23:24:12.016Z,0.70
2019-03-17T23:26:38.644Z,0.70
2019-03-17T23:29:05.217Z,0.70
2019-03-17T23:31:31.823Z,0.83
2019-03-17T23:33:58.408Z,0.80
2019-03-17T23:36:24.994Z,0.97
2019-03-17T23:38:51.614Z,0.80
2019-03-17T23:41:18.196Z,0.73
2019-03-17T23:43:44.760Z,0.90
2019-03-17T23:46:11.268Z,0.60
2019-03-17T23:48:37.864Z,0.70
2019-03-17T23:51:04.436Z,0.60
2019-03-17T23:53:31.048Z,0.73
2019-03-17T23:55:57.624Z,0.70
2019-03-17T23:58:24.231Z,0.87
